Time;durP1;ratioP1;P1;durP2;ratioP2;P2;SDS_P1;SDS_P2;PMS_P1;PMS_P2;Temp;Humidity;BMP_temperature;BMP_pressure;BME280_temperature;BME280_humidity;BME280_pressure;Samples;Min_cycle;Max_cycle;Signal;HPM_P1;HPM_P2
2023/05/10 00:00:13;;;;;;;0.10;0.10;;;13.20;99.90;;;;;;5078976;28;20505;-74
2023/05/10 00:02:40;;;;;;;0.13;0.13;;;13.20;99.90;;;;;;5078189;28;20311;-81
2023/05/10 00:05:06;;;;;;;0.10;0.10;;;13.20;99.90;;;;;;5078774;28;20024;-76
2023/05/10 00:07:32;;;;;;;0.10;0.10;;;13.20;99.90;;;;;;5077132;28;20067;-74
2023/05/10 00:09:58;;;;;;;0.20;0.20;;;13.30;99.90;;;;;;5077171;28;20035;-75
2023/05/10 00:12:24;;;;;;;0.10;0.10;;;13.20;99.90;;;;;;5077667;28;20020;-75
2023/05/10 00:14:49;;;;;;;1.20;1.10;;;13.30;99.90;;;;;;5077951;28;20027;-78
2023/05/10 00:17:15;;;;;;;0.20;0.20;;;13.30;99.90;;;;;;5082740;28;20665;-80
2023/05/10 00:19:41;;;;;;;0.10;0.10;;;12.70;99.90;;;;;;5085463;28;20085;-77
2023/05/10 00:22:06;;;;;;;1.00;0.98;;;13.20;99.90;;;;;;5084911;28;20187;-80
2023/05/10 00:24:32;;;;;;;0.10;0.10;;;13.00;99.90;;;;;;5084856;28;20094;-81
2023/05/10 00:26:58;;;;;;;0.10;0.10;;;13.00;99.90;;;;;;5083881;28;20054;-79
2023/05/10 00:29:24;;;;;;;0.10;0.10;;;13.00;99.90;;;;;;5085292;28;20028;-80
2023/05/10 00:31:49;;;;;;;0.17;0.17;;;12.90;99.90;;;;;;5085688;28;20024;-78
2023/05/10 00:34:15;;;;;;;0.20;0.20;;;14.60;99.90;;;;;;5085270;28;20055;-75
2023/05/10 00:36:41;;;;;;;0.10;0.10;;;12.80;99.90;;;;;;5081730;28;20082;-76
2023/05/10 00:39:07;;;;;;;1.65;1.27;;;15.70;99.90;;;;;;5083948;28;20020;-83
2023/05/10 00:41:33;;;;;;;0.10;0.10;;;12.70;99.90;;;;;;5084784;28;20044;-83
2023/05/10 00:43:59;;;;;;;0.10;0.10;;;12.70;99.90;;;;;;5084475;28;20067;-76
2023/05/10 00:46:28;;;;;;;0.20;0.20;;;12.80;99.90;;;;;;5085002;28;20171;-79
2023/05/10 00:48:54;;;;;;;0.15;0.15;;;12.80;99.90;;;;;;5080389;28;20027;-77
2023/05/10 00:51:20;;;;;;;0.10;0.10;;;12.70;99.90;;;;;;5080209;28;20301;-80
2023/05/10 00:53:46;;;;;;;0.80;0.80;;;12.70;99.90;;;;;;5078946;28;20540;-77
2023/05/10 00:56:12;;;;;;;0.10;0.10;;;12.60;99.90;;;;;;5078600;28;20228;-85
2023/05/10 00:58:39;;;;;;;0.10;0.10;;;12.60;99.90;;;;;;5078414;28;20024;-82
2023/05/10 01:01:06;;;;;;;0.10;0.10;;;12.60;99.90;;;;;;5078231;28;20051;-78
2023/05/10 01:03:32;;;;;;;0.20;0.20;;;12.60;99.90;;;;;;5078253;28;20327;-81
2023/05/10 01:05:58;;;;;;;0.10;0.10;;;12.60;99.90;;;;;;5078198;28;20339;-76
2023/05/10 01:08:25;;;;;;;0.10;0.10;;;12.60;99.90;;;;;;5078097;28;20514;-76
2023/05/10 01:10:52;;;;;;;0.32;0.32;;;12.70;99.90;;;;;;5078191;28;20036;-76
2023/05/10 01:13:29;;;;;;;0.10;0.10;;;12.70;99.90;;;;;;5077118;28;20615;-79
2023/05/10 01:15:56;;;;;;;0.10;0.10;;;12.70;99.90;;;;;;5078329;28;20063;-76
2023/05/10 01:18:22;;;;;;;0.13;0.13;;;12.70;99.90;;;;;;5078295;28;20566;-77
2023/05/10 01:20:57;;;;;;;0.10;0.10;;;12.60;99.90;;;;;;5077956;28;20246;-75
2023/05/10 01:23:55;;;;;;;0.13;0.13;;;12.60;99.90;;;;;;5078083;28;20048;-82
2023/05/10 01:26:32;;;;;;;0.10;0.10;;;12.60;99.90;;;;;;5015031;28;20033;-83
2023/05/10 01:29:13;;;;;;;0.10;0.10;;;12.60;99.90;;;;;;5015423;28;20022;-80
2023/05/10 01:32:12;;;;;;;0.10;0.10;;;12.50;99.90;;;;;;5015407;28;20033;-76
2023/05/10 01:35:04;;;;;;;0.10;0.10;;;12.40;99.90;;;;;;5015775;28;20036;-75
2023/05/10 01:38:04;;;;;;;0.10;0.10;;;12.40;99.90;;;;;;5017539;28;20476;-77
2023/05/10 01:40:37;;;;;;;0.10;0.10;;;12.40;99.90;;;;;;4924526;28;20027;-80
2023/05/10 01:43:09;;;;;;;0.65;0.65;;;12.40;99.90;;;;;;4940649;29;20451;-75
2023/05/10 01:45:47;;;;;;;0.10;0.10;;;12.40;99.90;;;;;;4940404;29;20089;-80
2023/05/10 01:48:14;;;;;;;0.10;0.10;;;12.40;99.90;;;;;;4939804;29;20035;-75
2023/05/10 01:50:45;;;;;;;3.95;3.78;;;12.50;99.90;;;;;;4940381;28;20595;-77
2023/05/10 01:53:12;;;;;;;0.10;0.10;;;12.50;99.90;;;;;;4940110;29;20035;-82
2023/05/10 01:55:52;;;;;;;0.10;0.10;;;12.50;99.90;;;;;;4939235;28;20055;-77
2023/05/10 01:58:25;;;;;;;0.10;0.10;;;12.50;99.90;;;;;;4924266;29;20062;-76
2023/05/10 02:00:52;;;;;;;0.10;0.10;;;12.50;99.90;;;;;;4925089;29;20115;-83
2023/05/10 02:03:23;;;;;;;0.10;0.10;;;12.50;99.90;;;;;;4963104;28;20054;-76
2023/05/10 02:05:51;;;;;;;0.20;0.20;;;12.50;99.90;;;;;;4980581;28;20022;-78
2023/05/10 02:08:20;;;;;;;0.20;0.20;;;12.60;99.90;;;;;;4965070;28;20081;-79
2023/05/10 02:10:48;;;;;;;0.10;0.10;;;12.60;99.90;;;;;;4982822;28;20359;-80
2023/05/10 02:13:16;;;;;;;0.10;0.10;;;12.60;99.90;;;;;;4981363;28;20030;-81
2023/05/10 02:15:43;;;;;;;0.10;0.10;;;12.70;99.90;;;;;;4983268;28;20069;-82
2023/05/10 02:18:11;;;;;;;0.10;0.10;;;12.60;99.90;;;;;;5062632;28;20674;-82
2023/05/10 02:20:38;;;;;;;0.10;0.10;;;13.00;99.90;;;;;;5061149;28;20099;-76
2023/05/10 02:23:04;;;;;;;0.25;0.25;;;12.60;99.90;;;;;;5059086;28;20170;-81
2023/05/10 02:25:32;;;;;;;0.10;0.10;;;12.60;99.90;;;;;;5059221;28;20032;-77
2023/05/10 02:28:01;;;;;;;0.20;0.20;;;13.70;99.90;;;;;;5058703;28;20301;-74
2023/05/10 02:30:28;;;;;;;0.10;0.10;;;12.70;99.90;;;;;;5059607;28;20021;-77
2023/05/10 02:32:55;;;;;;;0.10;0.10;;;12.70;99.90;;;;;;5060405;28;20032;-76
2023/05/10 02:35:22;;;;;;;0.20;0.20;;;12.80;99.90;;;;;;5059582;28;20112;-77
2023/05/10 02:37:50;;;;;;;0.10;0.10;;;12.80;99.90;;;;;;5058418;28;20536;-76
2023/05/10 02:40:17;;;;;;;0.10;0.10;;;12.80;99.90;;;;;;5059734;28;20027;-75
2023/05/10 02:42:45;;;;;;;0.10;0.10;;;12.80;99.90;;;;;;5059074;28;20116;-76
2023/05/10 02:45:14;;;;;;;0.13;0.13;;;12.80;99.90;;;;;;5059143;28;20033;-82
2023/05/10 02:47:40;;;;;;;0.10;0.10;;;12.70;99.90;;;;;;5059640;28;20112;-81
2023/05/10 02:50:07;;;;;;;0.20;0.20;;;12.80;99.90;;;;;;5058899;28;20380;-76
2023/05/10 02:52:42;;;;;;;0.10;0.10;;;12.70;99.90;;;;;;5057882;28;20016;-79
2023/05/10 02:55:11;;;;;;;0.10;0.10;;;12.80;99.90;;;;;;5075516;28;20353;-80
2023/05/10 02:57:43;;;;;;;2.22;2.13;;;12.80;99.90;;;;;;5079781;28;20575;-77
2023/05/10 03:00:10;;;;;;;0.40;0.40;;;12.80;99.90;;;;;;5079785;28;20031;-80
2023/05/10 03:02:36;;;;;;;0.10;0.10;;;12.80;99.90;;;;;;5079593;28;20244;-78
2023/05/10 03:05:02;;;;;;;0.20;0.20;;;12.80;99.90;;;;;;5078470;28;20488;-75
2023/05/10 03:07:28;;;;;;;0.20;0.20;;;12.80;99.90;;;;;;5080165;28;20679;-76
2023/05/10 03:09:55;;;;;;;0.10;0.10;;;12.80;99.90;;;;;;5079682;28;20258;-78
2023/05/10 03:12:43;;;;;;;0.10;0.10;;;12.80;99.90;;;;;;5079368;28;20326;-80
2023/05/10 03:15:32;;;;;;;0.10;0.10;;;12.80;99.90;;;;;;5079082;28;20491;-77
2023/05/10 03:18:04;;;;;;;0.10;0.10;;;12.70;99.90;;;;;;5079445;28;20103;-77
2023/05/10 03:20:42;;;;;;;0.10;0.10;;;12.80;99.90;;;;;;5079507;28;20320;-81
2023/05/10 03:23:27;;;;;;;0.10;0.10;;;12.60;99.90;;;;;;5079360;28;20033;-81
2023/05/10 03:25:53;;;;;;;0.10;0.10;;;12.50;99.90;;;;;;5079709;28;20031;-78
2023/05/10 03:28:21;;;;;;;0.10;0.10;;;12.50;99.90;;;;;;5083718;28;20402;-77
2023/05/10 03:30:51;;;;;;;1.98;1.95;;;12.50;99.90;;;;;;5082390;28;20301;-76
2023/05/10 03:33:17;;;;;;;0.10;0.10;;;12.40;99.90;;;;;;5083071;28;20430;-76
2023/05/10 03:35:45;;;;;;;0.20;0.20;;;12.40;99.90;;;;;;5084961;28;20016;-75
2023/05/10 03:38:13;;;;;;;0.20;0.20;;;12.30;99.90;;;;;;5090499;28;20020;-75
2023/05/10 03:40:39;;;;;;;9.30;8.40;;;12.20;99.90;;;;;;5092179;28;20554;-76
2023/05/10 03:43:05;;;;;;;0.17;0.17;;;12.20;99.90;;;;;;5090358;28;20039;-75
2023/05/10 03:45:32;;;;;;;0.40;0.40;;;12.20;99.90;;;;;;5086600;28;20269;-75
2023/05/10 03:47:58;;;;;;;0.10;0.10;;;12.00;99.90;;;;;;5088319;28;20035;-76
2023/05/10 03:50:27;;;;;;;0.63;0.63;;;11.80;99.90;;;;;;5087972;28;20082;-76
2023/05/10 03:52:54;;;;;;;0.20;0.20;;;11.60;99.90;;;;;;5088830;28;20587;-73
2023/05/10 03:55:20;;;;;;;0.10;0.10;;;11.40;99.90;;;;;;5093931;28;20131;-75
2023/05/10 03:57:45;;;;;;;0.10;0.10;;;11.30;99.90;;;;;;5092888;28;20510;-75
2023/05/10 04:00:12;;;;;;;0.10;0.10;;;11.40;99.90;;;;;;5088838;28;20043;-75
2023/05/10 04:02:38;;;;;;;0.15;0.15;;;11.40;99.90;;;;;;5086408;28;20235;-76
2023/05/10 04:05:06;;;;;;;0.10;0.10;;;11.30;99.90;;;;;;5091622;28;20059;-76
2023/05/10 04:07:33;;;;;;;0.00;0.00;;;11.30;99.90;;;;;;5089199;28;20028;-75
2023/05/10 04:09:58;;;;;;;0.10;0.10;;;11.40;99.90;;;;;;5091070;28;20020;-77
2023/05/10 04:12:24;;;;;;;0.10;0.10;;;11.80;99.90;;;;;;5092980;28;20016;-75
2023/05/10 04:14:50;;;;;;;0.10;0.10;;;11.30;99.90;;;;;;5093603;28;20292;-76
2023/05/10 04:17:16;;;;;;;0.00;0.00;;;11.30;99.90;;;;;;5076102;28;20441;-75
2023/05/10 04:19:44;;;;;;;0.10;0.10;;;11.20;99.90;;;;;;5093912;28;20012;-75
2023/05/10 04:22:10;;;;;;;0.10;0.10;;;11.10;99.90;;;;;;5091525;28;20028;-75
2023/05/10 04:24:35;;;;;;;0.10;0.10;;;12.40;99.90;;;;;;5093475;28;20411;-75
2023/05/10 04:27:02;;;;;;;0.10;0.10;;;11.10;99.90;;;;;;5094125;28;20067;-75
2023/05/10 04:29:28;;;;;;;0.43;0.40;;;12.80;99.90;;;;;;5089244;28;20262;-75
2023/05/10 04:31:56;;;;;;;0.10;0.10;;;11.20;99.90;;;;;;5092634;28;20440;-75
2023/05/10 04:34:22;;;;;;;0.08;0.08;;;11.30;99.90;;;;;;5092684;28;20087;-75
2023/05/10 04:36:47;;;;;;;0.10;0.10;;;11.30;99.90;;;;;;5089915;28;20044;-76
2023/05/10 04:39:13;;;;;;;0.10;0.10;;;10.90;99.90;;;;;;5091025;28;20569;-75
2023/05/10 04:41:39;;;;;;;0.10;0.10;;;11.30;99.90;;;;;;5084938;28;20287;-74
2023/05/10 04:44:14;;;;;;;0.10;0.10;;;11.30;99.90;;;;;;5090325;28;20039;-76
2023/05/10 04:46:41;;;;;;;0.10;0.10;;;11.30;99.90;;;;;;5088456;28;20020;-75
2023/05/10 04:49:10;;;;;;;0.10;0.10;;;11.30;99.90;;;;;;5089843;28;20017;-76
2023/05/10 04:51:36;;;;;;;0.10;0.10;;;11.40;99.90;;;;;;5089681;28;20034;-75
2023/05/10 04:54:02;;;;;;;0.10;0.10;;;11.50;99.90;;;;;;5090113;28;20080;-76
2023/05/10 04:56:28;;;;;;;0.10;0.10;;;11.50;99.90;;;;;;5092181;28;20077;-75
2023/05/10 04:58:53;;;;;;;0.40;0.40;;;11.50;99.90;;;;;;5093867;28;20044;-75
2023/05/10 05:01:19;;;;;;;0.10;0.10;;;11.50;99.90;;;;;;5093790;28;20032;-74
2023/05/10 05:03:45;;;;;;;0.13;0.13;;;11.60;99.90;;;;;;5093060;28;20040;-75
2023/05/10 05:06:10;;;;;;;0.10;0.10;;;11.60;99.90;;;;;;5090823;28;20107;-76
2023/05/10 05:08:36;;;;;;;0.20;0.20;;;11.60;99.90;;;;;;5090448;28;20020;-76
2023/05/10 05:11:06;;;;;;;0.10;0.10;;;11.60;99.90;;;;;;5088683;28;20043;-75
2023/05/10 05:13:32;;;;;;;0.10;0.10;;;11.40;99.90;;;;;;5095555;28;20072;-75
2023/05/10 05:16:01;;;;;;;0.20;0.20;;;11.60;99.90;;;;;;5089729;28;20059;-76
2023/05/10 05:18:31;;;;;;;0.10;0.10;;;11.60;99.90;;;;;;5094988;28;20025;-76
2023/05/10 05:20:58;;;;;;;0.10;0.10;;;11.70;99.90;;;;;;5095225;28;20457;-74
2023/05/10 05:23:24;;;;;;;2.97;2.85;;;11.80;99.90;;;;;;5090772;28;20034;-75
2023/05/10 05:25:53;;;;;;;0.10;0.10;;;11.90;99.90;;;;;;5091475;28;20036;-76
2023/05/10 05:28:20;;;;;;;0.10;0.10;;;12.00;99.90;;;;;;5085650;28;20439;-77
2023/05/10 05:30:46;;;;;;;0.30;0.30;;;12.00;99.90;;;;;;5084645;28;20082;-75
2023/05/10 05:33:15;;;;;;;0.13;0.13;;;12.10;99.90;;;;;;5082627;28;20055;-79
2023/05/10 05:35:42;;;;;;;0.20;0.20;;;12.20;99.90;;;;;;5083242;28;20016;-76
2023/05/10 05:38:08;;;;;;;0.17;0.17;;;12.20;99.90;;;;;;5083269;28;20097;-78
2023/05/10 05:40:34;;;;;;;0.15;0.15;;;12.30;99.90;;;;;;5082791;28;20577;-77
2023/05/10 05:43:00;;;;;;;0.10;0.10;;;12.20;99.90;;;;;;5083696;28;20028;-74
2023/05/10 05:45:25;;;;;;;4.93;4.63;;;12.10;99.90;;;;;;5082246;28;20115;-73
2023/05/10 05:47:51;;;;;;;0.10;0.10;;;12.20;99.90;;;;;;5080552;28;20422;-74
2023/05/10 05:50:17;;;;;;;0.10;0.10;;;12.80;99.90;;;;;;5083169;28;20039;-75
2023/05/10 05:52:43;;;;;;;0.20;0.20;;;12.30;99.90;;;;;;5085702;28;20659;-78
2023/05/10 05:55:09;;;;;;;0.10;0.10;;;12.30;99.90;;;;;;5085248;28;20048;-74
2023/05/10 05:57:34;;;;;;;0.10;0.10;;;12.20;99.90;;;;;;5087033;28;20016;-78
2023/05/10 06:00:00;;;;;;;0.10;0.10;;;12.10;99.90;;;;;;5084151;28;20533;-73
2023/05/10 06:02:26;;;;;;;0.10;0.10;;;12.00;99.90;;;;;;5081032;28;20017;-73
2023/05/10 06:04:51;;;;;;;0.17;0.17;;;12.00;99.90;;;;;;5080692;28;20102;-75
2023/05/10 06:07:17;;;;;;;0.10;0.10;;;12.00;99.90;;;;;;5081252;28;20020;-76
2023/05/10 06:09:43;;;;;;;0.10;0.10;;;12.00;99.90;;;;;;5083587;28;20334;-74
2023/05/10 06:12:08;;;;;;;0.00;0.00;;;12.00;99.90;;;;;;5083915;28;20027;-76
2023/05/10 06:14:34;;;;;;;0.10;0.10;;;11.90;99.90;;;;;;5081205;28;20514;-73
2023/05/10 06:17:00;;;;;;;0.10;0.10;;;12.00;99.90;;;;;;5081476;28;20425;-80
2023/05/10 06:19:26;;;;;;;0.20;0.20;;;12.00;99.90;;;;;;5084694;28;20078;-74
2023/05/10 06:21:52;;;;;;;0.10;0.10;;;12.00;99.90;;;;;;5083908;28;20474;-77
2023/05/10 06:24:17;;;;;;;0.10;0.10;;;12.10;99.90;;;;;;5081202;28;20322;-73
2023/05/10 06:26:43;;;;;;;0.20;0.20;;;11.20;99.90;;;;;;5079976;28;20023;-73
2023/05/10 06:29:09;;;;;;;0.47;0.47;;;12.10;99.90;;;;;;5083078;28;20043;-73
2023/05/10 06:31:34;;;;;;;0.80;0.80;;;12.10;99.90;;;;;;5080531;28;20585;-82
2023/05/10 06:34:00;;;;;;;0.10;0.10;;;12.20;99.90;;;;;;5079436;28;20055;-75
2023/05/10 06:36:27;;;;;;;0.82;0.82;;;12.20;99.90;;;;;;5079751;28;20024;-74
2023/05/10 06:38:52;;;;;;;0.10;0.10;;;12.30;99.90;;;;;;5060983;28;20343;-74
2023/05/10 06:41:18;;;;;;;0.10;0.10;;;12.30;99.90;;;;;;5079375;28;20095;-74
2023/05/10 06:43:44;;;;;;;0.10;0.10;;;12.40;99.90;;;;;;5078812;28;20318;-74
2023/05/10 06:46:10;;;;;;;0.20;0.20;;;12.40;99.90;;;;;;5079804;28;20020;-74
2023/05/10 06:48:36;;;;;;;0.82;0.82;;;12.50;99.90;;;;;;5079850;28;20032;-74
2023/05/10 06:51:01;;;;;;;0.10;0.10;;;12.50;99.90;;;;;;5079602;28;20350;-73
2023/05/10 06:53:27;;;;;;;0.10;0.10;;;12.60;99.90;;;;;;5078489;28;20028;-73
2023/05/10 06:55:53;;;;;;;0.20;0.20;;;12.70;99.90;;;;;;5078381;28;20028;-78
2023/05/10 06:58:19;;;;;;;0.65;0.65;;;12.80;99.90;;;;;;5078443;28;20102;-74
2023/05/10 07:00:46;;;;;;;0.20;0.20;;;12.90;99.90;;;;;;5078360;28;20499;-77
2023/05/10 07:03:12;;;;;;;0.30;0.30;;;13.10;99.90;;;;;;5078049;28;20127;-75
2023/05/10 07:05:37;;;;;;;0.10;0.10;;;13.20;99.90;;;;;;5077177;28;20114;-76
2023/05/10 07:08:03;;;;;;;0.10;0.10;;;13.30;99.90;;;;;;5078204;28;20566;-82
2023/05/10 07:10:29;;;;;;;0.10;0.10;;;13.40;99.90;;;;;;5078306;28;20031;-75
2023/05/10 07:12:55;;;;;;;0.10;0.10;;;13.40;99.90;;;;;;5078203;28;20316;-73
2023/05/10 07:15:21;;;;;;;7.00;4.03;;;13.50;99.90;;;;;;5077835;28;20169;-73
2023/05/10 07:17:47;;;;;;;0.15;0.15;;;13.60;99.90;;;;;;5077792;28;20030;-78
2023/05/10 07:20:12;;;;;;;0.10;0.10;;;13.70;99.90;;;;;;5078096;28;20039;-77
2023/05/10 07:22:38;;;;;;;0.10;0.10;;;13.80;99.90;;;;;;5076619;28;20034;-79
2023/05/10 07:25:04;;;;;;;0.10;0.10;;;13.90;99.90;;;;;;5077834;28;20235;-77
2023/05/10 07:27:30;;;;;;;0.10;0.10;;;14.10;99.90;;;;;;5078164;28;20022;-75
2023/05/10 07:29:56;;;;;;;12.48;11.40;;;14.10;99.90;;;;;;5077442;28;20062;-74
2023/05/10 07:32:22;;;;;;;0.25;0.25;;;14.00;99.90;;;;;;5077972;28;20047;-74
2023/05/10 07:34:47;;;;;;;0.10;0.10;;;14.00;99.90;;;;;;5077028;28;20513;-72
2023/05/10 07:37:13;;;;;;;0.10;0.10;;;14.10;99.90;;;;;;5075987;28;20315;-80
2023/05/10 07:39:39;;;;;;;0.98;0.98;;;14.30;99.90;;;;;;5078857;28;20026;-73
2023/05/10 07:42:05;;;;;;;0.10;0.10;;;15.90;99.90;;;;;;5078548;28;20036;-78
2023/05/10 07:44:31;;;;;;;0.17;0.17;;;14.40;99.90;;;;;;5078321;28;20107;-73
2023/05/10 07:46:56;;;;;;;0.30;0.30;;;14.50;99.90;;;;;;5076822;28;20139;-77
2023/05/10 07:49:24;;;;;;;0.43;0.43;;;14.60;99.90;;;;;;5078371;28;20263;-74
2023/05/10 07:51:50;;;;;;;0.10;0.10;;;14.70;99.90;;;;;;5077962;28;20193;-74
2023/05/10 07:54:15;;;;;;;0.10;0.10;;;14.80;99.90;;;;;;5078209;28;20553;-75
2023/05/10 07:56:45;;;;;;;0.30;0.30;;;14.80;99.90;;;;;;5078339;28;20020;-81
2023/05/10 07:59:15;;;;;;;0.17;0.17;;;14.70;99.90;;;;;;5078096;28;20031;-91
2023/05/10 08:01:42;;;;;;;0.95;0.95;;;14.80;99.90;;;;;;5078528;28;20755;-75
2023/05/10 08:04:08;;;;;;;10.80;3.70;;;14.80;99.90;;;;;;5075582;28;20040;-77
2023/05/10 08:06:34;;;;;;;0.17;0.17;;;14.80;99.90;;;;;;5077843;28;20078;-75
2023/05/10 08:09:00;;;;;;;0.20;0.20;;;14.70;99.90;;;;;;5078135;28;20069;-75
2023/05/10 08:11:27;;;;;;;15.43;7.40;;;14.80;99.90;;;;;;5078229;28;20012;-85
2023/05/10 08:13:53;;;;;;;0.40;0.40;;;14.80;99.90;;;;;;5077657;28;20109;-74
2023/05/10 08:16:19;;;;;;;2.25;2.15;;;14.80;99.90;;;;;;5076635;28;20023;-75
2023/05/10 08:18:46;;;;;;;0.10;0.10;;;14.80;99.90;;;;;;5077451;28;20028;-75
2023/05/10 08:21:13;;;;;;;0.20;0.20;;;14.60;99.90;;;;;;5077643;28;20027;-81
2023/05/10 08:23:39;;;;;;;0.15;0.15;;;15.00;99.90;;;;;;5077962;28;20108;-78
2023/05/10 08:26:05;;;;;;;0.55;0.55;;;15.00;99.90;;;;;;5077842;28;20657;-83
2023/05/10 08:28:31;;;;;;;0.10;0.10;;;15.20;99.90;;;;;;5077729;28;20374;-79
2023/05/10 08:30:57;;;;;;;1.40;1.35;;;15.30;99.90;;;;;;5078258;28;20667;-75
2023/05/10 08:33:22;;;;;;;0.10;0.10;;;15.30;99.90;;;;;;5077979;28;20270;-75
2023/05/10 08:35:48;;;;;;;0.20;0.20;;;15.40;99.90;;;;;;5077634;28;20028;-75
2023/05/10 08:38:14;;;;;;;0.20;0.20;;;15.50;99.90;;;;;;5077901;28;20012;-80
2023/05/10 08:40:42;;;;;;;0.30;0.30;;;15.60;99.90;;;;;;5077857;28;20716;-75
2023/05/10 08:43:10;;;;;;;0.30;0.30;;;15.60;99.90;;;;;;5077168;28;20024;-83
2023/05/10 08:45:38;;;;;;;0.10;0.10;;;15.60;99.90;;;;;;5077773;28;20104;-75
2023/05/10 08:48:07;;;;;;;0.32;0.32;;;15.90;99.90;;;;;;5080333;28;20711;-74
2023/05/10 08:50:36;;;;;;;0.10;0.10;;;16.10;99.90;;;;;;5080365;28;20028;-80
2023/05/10 08:53:05;;;;;;;0.10;0.10;;;16.30;99.90;;;;;;5081877;28;20107;-76
2023/05/10 08:55:33;;;;;;;0.10;0.10;;;16.40;99.90;;;;;;5081480;28;20108;-75
2023/05/10 08:57:59;;;;;;;0.10;0.10;;;16.30;99.90;;;;;;5082054;28;20021;-89
2023/05/10 09:00:26;;;;;;;0.10;0.10;;;16.30;99.90;;;;;;5082383;28;20100;-74
2023/05/10 09:02:52;;;;;;;0.20;0.20;;;16.30;99.90;;;;;;5081559;28;20027;-76
2023/05/10 09:05:18;;;;;;;0.40;0.40;;;16.60;99.90;;;;;;5081757;28;20016;-76
2023/05/10 09:07:44;;;;;;;0.10;0.10;;;16.60;99.90;;;;;;5080647;28;20208;-78
2023/05/10 09:10:11;;;;;;;0.10;0.10;;;17.00;99.90;;;;;;5081273;28;20212;-83
2023/05/10 09:12:38;;;;;;;0.20;0.20;;;16.70;99.90;;;;;;5081374;28;20698;-77
2023/05/10 09:15:05;;;;;;;0.20;0.20;;;16.90;99.90;;;;;;5081413;28;20008;-77
2023/05/10 09:17:31;;;;;;;0.10;0.10;;;16.90;99.90;;;;;;5081220;28;20077;-75
2023/05/10 09:20:02;;;;;;;0.10;0.10;;;16.90;99.90;;;;;;5080977;28;20577;-79
2023/05/10 09:22:27;;;;;;;3.03;2.83;;;17.00;99.90;;;;;;5080949;28;20038;-76
2023/05/10 09:25:13;;;;;;;0.10;0.10;;;17.10;99.90;;;;;;5080910;28;20029;-76
2023/05/10 09:27:40;;;;;;;0.57;0.57;;;17.30;99.90;;;;;;5081042;28;20034;-86
2023/05/10 09:30:08;;;;;;;0.10;0.10;;;17.30;99.90;;;;;;5080677;28;20020;-75
2023/05/10 09:32:40;;;;;;;0.70;0.70;;;17.50;99.90;;;;;;5080824;28;20016;-78
2023/05/10 09:35:08;;;;;;;0.20;0.20;;;17.80;99.90;;;;;;5079456;28;20024;-84
2023/05/10 09:37:33;;;;;;;0.10;0.10;;;18.00;99.90;;;;;;5081830;28;20581;-80
2023/05/10 09:39:59;;;;;;;0.10;0.10;;;18.00;99.90;;;;;;5082797;28;20020;-79
2023/05/10 09:42:25;;;;;;;0.88;0.85;;;18.30;99.90;;;;;;5083567;28;20024;-81
2023/05/10 09:44:51;;;;;;;0.20;0.20;;;18.60;99.90;;;;;;5082965;28;20212;-73
2023/05/10 09:47:19;;;;;;;0.10;0.10;;;18.90;99.90;;;;;;5081707;28;20013;-75
2023/05/10 09:49:57;;;;;;;0.63;0.63;;;19.10;99.90;;;;;;5080885;28;20020;-79
2023/05/10 09:52:23;;;;;;;2.05;1.40;;;19.10;99.90;;;;;;5080582;28;20052;-75
2023/05/10 09:54:55;;;;;;;0.20;0.20;;;19.20;99.90;;;;;;5080477;28;20769;-78
2023/05/10 09:57:21;;;;;;;0.88;0.80;;;19.50;99.90;;;;;;5080011;28;20077;-76
2023/05/10 09:59:47;;;;;;;0.20;0.20;;;19.80;99.90;;;;;;5078993;28;20852;-75
2023/05/10 10:02:14;;;;;;;1.20;1.20;;;20.30;99.90;;;;;;5080714;28;20112;-75
2023/05/10 10:04:40;;;;;;;0.20;0.20;;;20.70;99.90;;;;;;5080174;28;20036;-81
2023/05/10 10:07:06;;;;;;;0.40;0.40;;;20.90;99.90;;;;;;5080066;28;20078;-77
2023/05/10 10:09:33;;;;;;;0.10;0.10;;;21.30;99.90;;;;;;5079657;28;20028;-76
2023/05/10 10:12:00;;;;;;;0.00;0.00;;;21.40;99.90;;;;;;5079833;28;20016;-76
2023/05/10 10:14:26;;;;;;;0.10;0.10;;;21.60;99.90;;;;;;5079396;28;20085;-75
2023/05/10 10:16:53;;;;;;;0.20;0.20;;;21.40;99.90;;;;;;5079722;28;20538;-78
2023/05/10 10:19:20;;;;;;;0.10;0.10;;;21.50;99.90;;;;;;5080163;28;20022;-75
2023/05/10 10:21:46;;;;;;;0.20;0.20;;;21.70;99.90;;;;;;5079511;28;20510;-80
2023/05/10 10:24:12;;;;;;;0.22;0.22;;;21.70;99.90;;;;;;5080096;28;20078;-77
2023/05/10 10:26:40;;;;;;;0.10;0.10;;;21.70;99.90;;;;;;5080183;28;20040;-79
2023/05/10 10:29:05;;;;;;;0.10;0.10;;;21.90;99.90;;;;;;5079717;28;20035;-76
2023/05/10 10:31:45;;;;;;;0.28;0.28;;;21.90;99.70;;;;;;5079807;28;20012;-74
2023/05/10 10:34:29;;;;;;;0.10;0.10;;;21.80;99.60;;;;;;5078072;28;20016;-74
2023/05/10 10:36:57;;;;;;;0.73;0.73;;;21.70;99.30;;;;;;5079391;28;20020;-75
2023/05/10 10:39:26;;;;;;;0.10;0.10;;;21.50;99.90;;;;;;5079296;28;20718;-74
2023/05/10 10:41:56;;;;;;;0.10;0.10;;;21.60;99.80;;;;;;5079382;28;20645;-79
2023/05/10 10:44:23;;;;;;;0.10;0.10;;;21.40;99.90;;;;;;5078782;28;20227;-74
2023/05/10 10:47:02;;;;;;;0.10;0.10;;;21.10;98.80;;;;;;5078777;28;20128;-73
2023/05/10 10:49:31;;;;;;;0.10;0.10;;;20.90;99.90;;;;;;5079448;28;20028;-76
2023/05/10 10:52:49;;;;;;;0.10;0.10;;;20.80;99.90;;;;;;5079323;28;20274;-77
2023/05/10 10:55:18;;;;;;;0.10;0.10;;;20.70;99.90;;;;;;5015993;28;20528;-75
2023/05/10 10:57:45;;;;;;;0.10;0.10;;;20.90;99.90;;;;;;4998983;28;20722;-74
2023/05/10 11:00:35;;;;;;;0.10;0.10;;;21.40;99.90;;;;;;5016046;28;20049;-74
2023/05/10 11:03:18;;;;;;;1.48;1.38;;;22.00;99.90;;;;;;5016343;28;20036;-75
2023/05/10 11:05:48;;;;;;;0.80;0.50;;;22.50;99.30;;;;;;5018352;28;20037;-75
2023/05/10 11:08:18;;;;;;;0.10;0.10;;;23.00;96.30;;;;;;5016709;28;20120;-74
2023/05/10 11:10:59;;;;;;;0.10;0.10;;;23.20;96.10;;;;;;5015811;28;20095;-75
2023/05/10 11:13:43;;;;;;;0.47;0.47;;;23.30;94.90;;;;;;5016581;28;20032;-74
2023/05/10 11:16:29;;;;;;;;;;;23.30;93.90;;;;;;5017035;28;20022;-75
2023/05/10 11:19:06;;;;;;;0.10;0.10;;;23.20;93.00;;;;;;5015578;28;19959;-75
2023/05/10 11:21:34;;;;;;;0.32;0.32;;;23.40;93.10;;;;;;5016033;28;20026;-75
2023/05/10 11:24:05;;;;;;;0.10;0.10;;;23.20;93.20;;;;;;4999662;28;20548;-74
2023/05/10 11:26:33;;;;;;;1.65;1.08;;;23.10;94.30;;;;;;5016540;28;20056;-74
2023/05/10 11:29:01;;;;;;;0.28;0.28;;;23.40;94.20;;;;;;5016570;28;20022;-75
2023/05/10 11:31:28;;;;;;;0.38;0.38;;;23.90;93.00;;;;;;5062464;28;20270;-74
2023/05/10 11:33:58;;;;;;;1.17;1.15;;;24.40;91.80;;;;;;5079196;28;20029;-75
2023/05/10 11:36:28;;;;;;;0.45;0.45;;;24.80;90.80;;;;;;5079291;28;20410;-74
2023/05/10 11:38:55;;;;;;;0.20;0.20;;;25.20;85.80;;;;;;5078140;28;20107;-79
2023/05/10 11:41:22;;;;;;;0.55;0.55;;;25.70;84.80;;;;;;5077977;28;20016;-72
2023/05/10 11:43:53;;;;;;;0.73;0.63;;;25.90;82.30;;;;;;5079104;28;20036;-73
2023/05/10 11:46:20;;;;;;;0.57;0.57;;;26.40;80.60;;;;;;5078901;28;20035;-74
2023/05/10 11:48:50;;;;;;;0.45;0.45;;;27.00;78.90;;;;;;5079178;28;20020;-74
2023/05/10 11:51:19;;;;;;;0.10;0.10;;;27.20;76.50;;;;;;5079156;28;20043;-73
2023/05/10 11:53:45;;;;;;;0.10;0.10;;;27.20;75.70;;;;;;5078946;28;20040;-74
2023/05/10 11:56:11;;;;;;;0.32;0.13;;;27.70;74.50;;;;;;5079205;28;20638;-74
2023/05/10 11:58:38;;;;;;;1.52;0.63;;;27.90;73.30;;;;;;5079687;28;20028;-74
2023/05/10 12:01:06;;;;;;;0.05;0.05;;;28.10;75.00;;;;;;5079618;28;20028;-75
2023/05/10 12:03:33;;;;;;;1.63;0.85;;;28.00;76.00;;;;;;5079120;28;20039;-73
2023/05/10 12:06:00;;;;;;;1.02;1.00;;;28.20;75.30;;;;;;5077064;28;20028;-74
2023/05/10 12:08:28;;;;;;;0.10;0.10;;;28.30;73.60;;;;;;5078567;28;20103;-74
2023/05/10 12:11:05;;;;;;;0.63;0.63;;;29.00;71.90;;;;;;5077943;28;20016;-73
2023/05/10 12:13:30;;;;;;;0.47;0.28;;;29.50;70.10;;;;;;5079325;28;20024;-74
2023/05/10 12:16:00;;;;;;;0.00;0.00;;;29.80;68.50;;;;;;5078069;28;20027;-74
2023/05/10 12:18:26;;;;;;;3.30;1.30;;;29.90;65.90;;;;;;5077167;28;20024;-74
2023/05/10 12:20:53;;;;;;;0.20;0.20;;;30.00;65.60;;;;;;5078962;28;20050;-74
2023/05/10 12:23:20;;;;;;;0.10;0.10;;;30.30;65.20;;;;;;5078693;28;20050;-73
2023/05/10 12:25:46;;;;;;;0.82;0.75;;;30.10;63.30;;;;;;5079232;28;20089;-73
2023/05/10 12:28:12;;;;;;;0.43;0.43;;;29.80;63.60;;;;;;5078849;28;20031;-75
2023/05/10 12:30:38;;;;;;;0.40;0.20;;;30.10;63.70;;;;;;5078588;28;20024;-74
2023/05/10 12:33:11;;;;;;;0.20;0.20;;;30.40;63.90;;;;;;5078456;28;20009;-74
2023/05/10 12:35:48;;;;;;;0.90;0.40;;;30.40;63.50;;;;;;5077615;28;20035;-75
2023/05/10 12:38:29;;;;;;;0.45;0.40;;;30.60;62.00;;;;;;5077377;28;20029;-73
2023/05/10 12:41:02;;;;;;;0.10;0.10;;;30.20;63.00;;;;;;5078541;28;20048;-78
2023/05/10 12:43:28;;;;;;;0.08;0.08;;;30.60;62.50;;;;;;5078481;28;20028;-73
2023/05/10 12:45:54;;;;;;;0.32;0.32;;;30.80;61.70;;;;;;5078995;28;20023;-75
2023/05/10 12:48:20;;;;;;;0.10;0.10;;;31.30;61.00;;;;;;5078179;28;20024;-74
2023/05/10 12:50:47;;;;;;;0.25;0.25;;;30.40;60.30;;;;;;5076878;28;20028;-72
2023/05/10 12:53:16;;;;;;;0.08;0.08;;;30.30;60.60;;;;;;5078002;28;20298;-77